createdAt,value
2018-06-27T00:01:48.970Z,11.37
2018-06-27T00:04:17.359Z,11.77
2018-06-27T00:06:45.761Z,9.70
2018-06-27T00:09:14.139Z,10.10
2018-06-27T00:11:42.534Z,12.17
2018-06-27T00:14:10.943Z,10.70
2018-06-27T00:16:39.349Z,10.10
2018-06-27T00:19:07.723Z,10.03
2018-06-27T00:21:36.117Z,10.87
2018-06-27T00:24:04.502Z,11.23
2018-06-27T00:26:32.922Z,11.77
2018-06-27T00:29:01.299Z,9.80
2018-06-27T00:31:29.703Z,11.00
2018-06-27T00:33:58.126Z,11.07
2018-06-27T00:36:26.500Z,10.70
2018-06-27T00:38:54.889Z,10.17
2018-06-27T00:41:23.389Z,8.33
2018-06-27T00:43:51.797Z,10.93
2018-06-27T00:46:20.180Z,10.10
2018-06-27T00:48:48.581Z,9.80
2018-06-27T00:51:16.962Z,10.80
2018-06-27T00:53:50.803Z,9.30
2018-06-27T00:56:19.183Z,10.40
2018-06-27T00:58:47.577Z,10.17
2018-06-27T01:01:15.963Z,10.00
2018-06-27T01:03:44.354Z,9.33
2018-06-27T01:06:12.721Z,9.27
2018-06-27T01:08:41.119Z,9.40
2018-06-27T01:11:09.484Z,8.80
2018-06-27T01:13:37.912Z,11.10
2018-06-27T01:16:06.291Z,11.23
2018-06-27T01:18:34.691Z,9.77
2018-06-27T01:21:03.072Z,9.90
2018-06-27T01:23:31.495Z,9.90
2018-06-27T01:25:59.871Z,8.90
2018-06-27T01:28:28.250Z,8.20
2018-06-27T01:30:56.610Z,7.07
2018-06-27T01:33:25.000Z,7.87
2018-06-27T01:35:53.356Z,7.70
2018-06-27T01:38:21.746Z,9.10
2018-06-27T01:40:50.146Z,8.47
2018-06-27T01:43:18.545Z,9.20
2018-06-27T01:45:46.942Z,9.33
2018-06-27T01:48:15.335Z,10.10
2018-06-27T01:50:43.702Z,8.50
2018-06-27T01:53:13.306Z,8.80
2018-06-27T01:55:41.667Z,8.57
2018-06-27T01:58:10.049Z,8.70
2018-06-27T02:00:38.622Z,9.40
2018-06-27T02:03:07.333Z,8.20
2018-06-27T02:05:35.794Z,9.60
2018-06-27T02:08:04.186Z,9.17
2018-06-27T02:10:32.574Z,8.53
2018-06-27T02:13:00.967Z,8.53
2018-06-27T02:15:29.367Z,9.10
2018-06-27T02:17:57.725Z,8.17
2018-06-27T02:20:26.104Z,8.70
2018-06-27T02:22:55.402Z,8.90
2018-06-27T02:25:23.794Z,8.50
2018-06-27T02:27:52.159Z,7.73
2018-06-27T02:30:20.558Z,9.77
2018-06-27T02:32:48.926Z,9.70
2018-06-27T02:35:17.318Z,9.40
2018-06-27T02:37:45.694Z,9.73
2018-06-27T02:40:14.086Z,8.77
2018-06-27T02:42:42.454Z,8.20
2018-06-27T02:45:10.851Z,8.73
2018-06-27T02:47:39.243Z,9.10
2018-06-27T02:50:07.738Z,7.80
2018-06-27T02:52:36.112Z,7.50
2018-06-27T02:55:04.563Z,7.90
2018-06-27T02:57:32.962Z,7.70
2018-06-27T03:00:01.359Z,9.13
2018-06-27T03:02:30.015Z,8.90
2018-06-27T03:04:58.360Z,8.97
2018-06-27T03:07:26.734Z,9.60
2018-06-27T03:09:55.126Z,9.23
2018-06-27T03:12:23.519Z,9.60
2018-06-27T03:14:51.907Z,9.80
2018-06-27T03:17:20.275Z,8.90
2018-06-27T03:19:48.671Z,7.83
2018-06-27T03:22:17.047Z,8.10
2018-06-27T03:24:45.593Z,8.73
2018-06-27T03:27:13.963Z,8.07
2018-06-27T03:29:42.334Z,9.00
2018-06-27T03:32:10.726Z,8.23
2018-06-27T03:34:40.102Z,8.87
2018-06-27T03:37:08.499Z,7.73
2018-06-27T03:39:36.875Z,8.60
2018-06-27T03:42:05.275Z,8.37
2018-06-27T03:44:33.651Z,7.87
2018-06-27T03:47:02.048Z,8.23
2018-06-27T03:49:30.426Z,6.87
2018-06-27T03:51:58.810Z,7.93
2018-06-27T03:54:27.182Z,7.93
2018-06-27T03:56:55.573Z,7.40
2018-06-27T03:59:23.936Z,6.60
2018-06-27T04:01:52.375Z,7.80
2018-06-27T04:04:20.742Z,7.43
2018-06-27T04:06:49.139Z,8.00
2018-06-27T04:09:17.519Z,8.07
2018-06-27T04:11:45.914Z,7.83
2018-06-27T04:14:14.297Z,7.90
2018-06-27T04:16:42.687Z,7.90
2018-06-27T04:19:11.054Z,7.13
2018-06-27T04:21:39.469Z,7.63
2018-06-27T04:24:07.971Z,7.37
2018-06-27T04:26:36.466Z,7.73
2018-06-27T04:29:04.847Z,8.77
2018-06-27T04:31:33.283Z,8.40
2018-06-27T04:34:01.729Z,8.37
2018-06-27T04:36:30.553Z,8.00
2018-06-27T04:38:58.931Z,8.00
2018-06-27T04:41:27.313Z,7.93
2018-06-27T04:43:55.686Z,9.20
2018-06-27T04:46:24.094Z,8.90
2018-06-27T04:48:52.461Z,9.37
2018-06-27T04:51:20.830Z,9.57
2018-06-27T04:53:49.222Z,9.40
2018-06-27T04:56:17.850Z,11.03
2018-06-27T04:58:46.234Z,7.23
2018-06-27T05:01:14.614Z,8.57
2018-06-27T05:03:43.452Z,7.90
2018-06-27T05:06:11.878Z,8.20
2018-06-27T05:08:40.325Z,7.80
2018-06-27T05:11:08.690Z,7.70
2018-06-27T05:13:37.094Z,7.77
2018-06-27T05:16:05.535Z,6.73
2018-06-27T05:18:33.899Z,8.30
2018-06-27T05:21:02.267Z,7.10
2018-06-27T05:23:30.658Z,6.47
2018-06-27T05:25:59.026Z,6.83
2018-06-27T05:28:27.410Z,6.60
2018-06-27T05:30:55.783Z,7.20
2018-06-27T05:33:24.187Z,6.10
2018-06-27T05:35:52.655Z,6.80
2018-06-27T05:38:21.037Z,6.80
2018-06-27T05:40:49.398Z,7.40
2018-06-27T05:43:17.782Z,7.20
2018-06-27T05:45:46.152Z,6.07
2018-06-27T05:48:14.534Z,6.23
2018-06-27T05:50:42.897Z,6.73
2018-06-27T05:53:11.290Z,5.70
2018-06-27T05:55:39.664Z,6.43
2018-06-27T05:58:08.118Z,6.47
2018-06-27T06:00:36.531Z,6.70
2018-06-27T06:03:05.090Z,5.20
2018-06-27T06:05:33.496Z,5.03
2018-06-27T06:08:01.862Z,6.33
2018-06-27T06:10:30.258Z,5.50
2018-06-27T06:12:58.661Z,5.43
2018-06-27T06:15:27.052Z,4.93
2018-06-27T06:17:55.418Z,4.90
2018-06-27T06:20:23.802Z,4.60
2018-06-27T06:22:52.161Z,3.70
2018-06-27T06:25:20.606Z,4.53
2018-06-27T06:27:48.926Z,5.17
2018-06-27T06:30:17.306Z,4.27
2018-06-27T06:32:45.772Z,5.00
2018-06-27T06:35:14.158Z,4.00
2018-06-27T06:37:42.529Z,4.20
2018-06-27T06:40:10.922Z,4.73
2018-06-27T06:42:39.287Z,4.13
2018-06-27T06:45:07.671Z,4.07
2018-06-27T06:47:36.033Z,4.20
2018-06-27T06:50:04.805Z,4.57
2018-06-27T06:52:33.177Z,4.73
2018-06-27T06:55:01.562Z,4.50
2018-06-27T06:57:29.926Z,4.40
2018-06-27T06:59:58.326Z,3.47
2018-06-27T07:02:26.734Z,4.20
2018-06-27T07:04:55.181Z,4.37
2018-06-27T07:07:23.527Z,3.80
2018-06-27T07:09:51.930Z,3.70
2018-06-27T07:12:20.313Z,3.77
2018-06-27T07:14:48.703Z,4.00
2018-06-27T07:17:17.070Z,4.07
2018-06-27T07:19:45.461Z,3.60
2018-06-27T07:22:13.835Z,3.57
2018-06-27T07:24:42.262Z,3.90
2018-06-27T07:27:10.632Z,3.40
2018-06-27T07:29:39.004Z,3.60
2018-06-27T07:32:07.450Z,2.77
2018-06-27T07:34:35.818Z,3.00
2018-06-27T07:37:04.259Z,2.90
2018-06-27T07:39:32.635Z,3.63
2018-06-27T07:42:01.024Z,2.83
2018-06-27T07:44:29.411Z,3.40
2018-06-27T07:46:57.810Z,3.10
2018-06-27T07:49:26.174Z,3.40
2018-06-27T07:51:54.566Z,3.40
2018-06-27T07:54:22.926Z,3.53
2018-06-27T07:56:51.330Z,3.57
2018-06-27T07:59:19.695Z,3.63
2018-06-27T08:01:48.094Z,3.67
2018-06-27T08:04:16.467Z,3.70
2018-06-27T08:06:46.134Z,5.80
2018-06-27T08:09:14.518Z,3.30
2018-06-27T08:11:43.454Z,3.40
2018-06-27T08:14:11.867Z,2.60
2018-06-27T08:16:40.369Z,2.57
2018-06-27T08:19:08.738Z,2.17
2018-06-27T08:21:37.135Z,2.03
2018-06-27T08:24:05.611Z,2.17
2018-06-27T08:26:34.003Z,1.90
2018-06-27T08:29:02.370Z,2.10
2018-06-27T08:31:30.766Z,1.70
2018-06-27T08:33:59.127Z,2.00
2018-06-27T08:36:27.515Z,1.67
2018-06-27T08:38:55.883Z,2.00
2018-06-27T08:41:24.284Z,2.03
2018-06-27T08:43:52.650Z,1.90
2018-06-27T08:46:21.182Z,1.93
2018-06-27T08:48:49.818Z,1.67
2018-06-27T08:51:18.302Z,1.87
2018-06-27T08:53:46.693Z,1.63
2018-06-27T08:56:15.067Z,1.67
2018-06-27T08:58:43.507Z,1.70
2018-06-27T09:01:11.843Z,1.80
2018-06-27T09:03:40.231Z,1.80
2018-06-27T09:06:08.604Z,1.40
2018-06-27T09:08:37.010Z,2.13
2018-06-27T09:11:05.380Z,1.73
2018-06-27T09:13:33.795Z,1.60
2018-06-27T09:16:02.179Z,1.67
2018-06-27T09:18:30.633Z,1.40
2018-06-27T09:20:58.962Z,1.23
2018-06-27T09:23:27.354Z,1.40
2018-06-27T09:25:55.711Z,1.10
2018-06-27T09:28:24.107Z,1.27
2018-06-27T09:30:52.579Z,1.60
2018-06-27T09:33:20.967Z,1.40
2018-06-27T09:35:49.334Z,1.47
2018-06-27T09:38:17.809Z,1.63
2018-06-27T09:40:46.190Z,1.50
2018-06-27T09:43:14.587Z,1.40
2018-06-27T09:45:42.968Z,1.23
2018-06-27T09:48:11.430Z,1.30
2018-06-27T09:50:39.794Z,1.53
2018-06-27T09:53:08.196Z,1.40
2018-06-27T09:55:36.565Z,1.40
2018-06-27T09:58:04.982Z,1.80
2018-06-27T10:00:38.218Z,1.40
2018-06-27T10:03:07.275Z,1.60
2018-06-27T10:05:36.237Z,2.50
2018-06-27T10:08:04.634Z,1.33
2018-06-27T10:10:33.027Z,1.23
2018-06-27T10:13:01.427Z,1.30
2018-06-27T10:15:29.818Z,1.57
2018-06-27T10:17:58.251Z,1.20
2018-06-27T10:20:26.642Z,1.20
2018-06-27T10:22:55.010Z,1.27
2018-06-27T10:25:23.400Z,1.30
2018-06-27T10:27:51.770Z,1.20
2018-06-27T10:30:20.163Z,1.40
2018-06-27T10:32:48.532Z,1.57
2018-06-27T10:35:16.922Z,1.40
2018-06-27T10:37:45.292Z,1.70
2018-06-27T10:40:13.687Z,1.40
2018-06-27T10:42:42.073Z,1.33
2018-06-27T10:45:10.486Z,1.40
2018-06-27T10:47:38.880Z,1.33
2018-06-27T10:50:07.270Z,1.73
2018-06-27T10:52:35.635Z,1.43
2018-06-27T10:55:09.302Z,1.33
2018-06-27T10:57:37.672Z,1.40
2018-06-27T11:00:06.260Z,1.30
2018-06-27T11:02:34.635Z,1.20
2018-06-27T11:05:03.069Z,1.50
2018-06-27T11:07:31.440Z,1.70
2018-06-27T11:09:59.837Z,1.07
2018-06-27T11:12:28.218Z,1.80
2018-06-27T11:14:56.598Z,0.90
2018-06-27T11:17:24.953Z,1.20
2018-06-27T11:19:53.347Z,1.53
2018-06-27T11:22:21.718Z,1.30
2018-06-27T11:24:50.119Z,1.37
2018-06-27T11:27:18.494Z,0.97
2018-06-27T11:29:46.895Z,1.20
2018-06-27T11:32:15.277Z,1.30
2018-06-27T11:34:43.664Z,1.20
2018-06-27T11:37:12.046Z,1.33
2018-06-27T11:39:40.406Z,1.27
2018-06-27T11:42:08.799Z,1.50
2018-06-27T11:44:37.272Z,1.43
2018-06-27T11:47:05.706Z,1.03
2018-06-27T11:49:34.082Z,1.40
2018-06-27T11:52:02.495Z,1.97
2018-06-27T11:54:30.862Z,1.60
2018-06-27T11:56:59.268Z,1.70
2018-06-27T11:59:27.639Z,1.23
2018-06-27T12:01:56.035Z,0.90
2018-06-27T12:04:24.935Z,1.03
2018-06-27T12:06:53.343Z,1.47
2018-06-27T12:09:21.711Z,1.30
2018-06-27T12:11:50.104Z,1.33
2018-06-27T12:14:18.517Z,1.70
2018-06-27T12:16:46.905Z,1.47
2018-06-27T12:19:15.275Z,1.80
2018-06-27T12:21:43.667Z,1.40
2018-06-27T12:24:12.030Z,1.47
2018-06-27T12:26:40.427Z,1.40
2018-06-27T12:29:08.810Z,2.00
2018-06-27T12:31:37.204Z,1.40
2018-06-27T12:34:05.566Z,1.67
2018-06-27T12:36:33.955Z,1.47
2018-06-27T12:39:02.319Z,2.10
2018-06-27T12:41:30.706Z,1.80
2018-06-27T12:43:59.075Z,1.43
2018-06-27T12:46:27.467Z,1.27
2018-06-27T12:48:56.306Z,1.73
2018-06-27T12:51:24.683Z,1.77
2018-06-27T12:53:53.076Z,1.50
2018-06-27T12:56:21.444Z,1.50
2018-06-27T12:58:49.841Z,1.63
2018-06-27T13:01:18.231Z,1.50
2018-06-27T13:03:46.663Z,1.80
2018-06-27T13:06:15.026Z,1.43
2018-06-27T13:08:43.466Z,1.30
2018-06-27T13:11:11.835Z,1.63
2018-06-27T13:13:40.255Z,1.73
2018-06-27T13:16:08.614Z,1.80
2018-06-27T13:18:37.011Z,2.00
2018-06-27T13:21:05.387Z,1.63
2018-06-27T13:23:34.086Z,1.63
2018-06-27T13:26:02.501Z,1.43
2018-06-27T13:28:30.897Z,1.50
2018-06-27T13:30:59.270Z,1.80
2018-06-27T13:33:27.667Z,1.57
2018-06-27T13:35:56.038Z,1.70
2018-06-27T13:38:24.428Z,1.23
2018-06-27T13:40:52.869Z,1.67
2018-06-27T13:43:21.341Z,1.70
2018-06-27T13:45:50.032Z,2.00
2018-06-27T13:48:18.464Z,1.67
2018-06-27T13:50:46.890Z,1.40
2018-06-27T13:53:15.286Z,1.73
2018-06-27T13:55:43.650Z,1.50
2018-06-27T13:58:12.034Z,1.70
2018-06-27T14:00:40.402Z,1.77
2018-06-27T14:03:08.834Z,1.67
2018-06-27T14:05:37.203Z,1.63
2018-06-27T14:08:05.870Z,1.97
2018-06-27T14:10:34.244Z,1.20
2018-06-27T14:13:02.633Z,1.97
2018-06-27T14:15:31.047Z,1.60
2018-06-27T14:17:59.422Z,1.47
2018-06-27T14:20:27.818Z,1.80
2018-06-27T14:22:56.178Z,1.40
2018-06-27T14:25:24.657Z,1.63
2018-06-27T14:27:53.559Z,1.57
2018-06-27T14:30:22.080Z,2.37
2018-06-27T14:32:50.521Z,1.93
2018-06-27T14:35:18.946Z,1.80
2018-06-27T14:37:47.400Z,2.10
2018-06-27T14:40:15.763Z,2.27
2018-06-27T14:42:44.137Z,1.90
2018-06-27T14:45:12.548Z,1.90
2018-06-27T14:47:41.011Z,1.90
2018-06-27T14:50:09.435Z,2.00
2018-06-27T14:52:37.811Z,1.43
2018-06-27T14:55:08.342Z,1.73
2018-06-27T14:57:37.420Z,1.80
2018-06-27T15:00:07.065Z,1.70
2018-06-27T15:02:35.455Z,2.63
2018-06-27T15:05:03.866Z,1.83
2018-06-27T15:07:32.442Z,2.10
2018-06-27T15:10:00.855Z,1.40
2018-06-27T15:12:29.262Z,1.50
2018-06-27T15:14:57.646Z,1.90
2018-06-27T15:17:26.048Z,1.87
2018-06-27T15:19:54.437Z,1.60
2018-06-27T15:22:22.815Z,2.00
2018-06-27T15:24:51.203Z,1.80
2018-06-27T15:27:19.567Z,1.90
2018-06-27T15:29:47.976Z,1.60
2018-06-27T15:32:16.337Z,1.50
2018-06-27T15:34:44.710Z,1.70
2018-06-27T15:37:13.149Z,1.47
2018-06-27T15:39:41.506Z,1.50
2018-06-27T15:42:10.009Z,1.97
2018-06-27T15:44:38.386Z,1.50
2018-06-27T15:47:06.847Z,1.50
2018-06-27T15:49:35.210Z,1.77
2018-06-27T15:52:03.618Z,1.63
2018-06-27T15:54:31.985Z,1.40
2018-06-27T15:57:00.412Z,1.60
2018-06-27T15:59:28.793Z,1.60
2018-06-27T16:01:57.202Z,1.63
2018-06-27T16:04:25.570Z,1.30
2018-06-27T16:06:53.972Z,1.43
2018-06-27T16:09:22.350Z,2.43
2018-06-27T16:11:51.042Z,1.30
2018-06-27T16:14:19.374Z,1.47
2018-06-27T16:16:47.831Z,1.37
2018-06-27T16:19:16.203Z,1.17
2018-06-27T16:21:44.594Z,1.00
2018-06-27T16:24:13.095Z,1.50
2018-06-27T16:26:41.495Z,1.00
2018-06-27T16:29:09.969Z,1.50
2018-06-27T16:31:38.452Z,1.00
2018-06-27T16:34:06.846Z,1.20
2018-06-27T16:36:35.244Z,1.50
2018-06-27T16:39:04.094Z,1.30
2018-06-27T16:41:32.534Z,1.20
2018-06-27T16:44:00.905Z,1.23
2018-06-27T16:46:29.366Z,1.20
2018-06-27T16:48:57.720Z,1.20
2018-06-27T16:51:26.268Z,1.60
2018-06-27T16:53:54.620Z,1.40
2018-06-27T16:56:22.996Z,1.30
2018-06-27T16:58:51.402Z,1.17
2018-06-27T17:01:19.859Z,1.47
2018-06-27T17:03:48.348Z,1.50
2018-06-27T17:06:16.754Z,1.30
2018-06-27T17:08:45.152Z,1.30
2018-06-27T17:11:13.518Z,1.30
2018-06-27T17:13:41.943Z,1.70
2018-06-27T17:16:10.387Z,1.43
2018-06-27T17:18:38.792Z,2.20
2018-06-27T17:21:07.307Z,2.10
2018-06-27T17:23:35.703Z,1.90
2018-06-27T17:26:04.103Z,1.97
2018-06-27T17:28:32.503Z,2.00
2018-06-27T17:31:00.962Z,1.90
2018-06-27T17:33:29.435Z,1.90
2018-06-27T17:35:57.816Z,1.50
2018-06-27T17:38:26.206Z,1.87
2018-06-27T17:40:54.582Z,2.40
2018-06-27T17:43:22.987Z,1.97
2018-06-27T17:45:51.390Z,2.00
2018-06-27T17:48:19.778Z,1.47
2018-06-27T17:50:48.147Z,1.70
2018-06-27T17:53:16.537Z,1.50
2018-06-27T17:55:44.902Z,1.80
2018-06-27T17:58:13.290Z,1.50
2018-06-27T18:00:41.673Z,1.77
2018-06-27T18:03:10.098Z,2.20
2018-06-27T18:05:38.475Z,2.20
2018-06-27T18:08:06.865Z,1.53
2018-06-27T18:10:35.243Z,2.17
2018-06-27T18:13:03.658Z,1.50
2018-06-27T18:15:32.133Z,2.13
2018-06-27T18:18:00.492Z,2.07
2018-06-27T18:20:28.967Z,1.53
2018-06-27T18:22:57.337Z,2.20
2018-06-27T18:25:25.738Z,2.33
2018-06-27T18:27:54.287Z,2.70
2018-06-27T18:30:22.700Z,2.13
2018-06-27T18:32:51.073Z,2.30
2018-06-27T18:35:19.472Z,2.07
2018-06-27T18:37:47.858Z,2.33
2018-06-27T18:40:16.265Z,2.13
2018-06-27T18:42:44.692Z,2.77
2018-06-27T18:45:13.138Z,2.08
2018-06-27T18:47:41.507Z,1.97
2018-06-27T18:50:09.909Z,1.97
2018-06-27T18:52:38.302Z,1.60
2018-06-27T18:55:06.693Z,2.30
2018-06-27T18:57:35.067Z,1.60
2018-06-27T19:00:03.477Z,2.10
2018-06-27T19:02:31.887Z,1.97
2018-06-27T19:05:00.282Z,2.50
2018-06-27T19:07:28.654Z,1.97
2018-06-27T19:09:57.061Z,2.47
2018-06-27T19:12:25.766Z,2.17
2018-06-27T19:14:54.188Z,1.70
2018-06-27T19:17:22.595Z,2.30
2018-06-27T19:19:50.981Z,2.47
2018-06-27T19:22:19.350Z,2.17
2018-06-27T19:24:47.764Z,2.63
2018-06-27T19:27:16.128Z,2.43
2018-06-27T19:29:44.524Z,1.97
2018-06-27T19:32:12.904Z,2.20
2018-06-27T19:34:41.273Z,2.60
2018-06-27T19:37:09.667Z,2.60
2018-06-27T19:39:38.154Z,2.30
2018-06-27T19:42:06.540Z,2.93
2018-06-27T19:44:34.995Z,2.90
2018-06-27T19:47:03.464Z,2.57
2018-06-27T19:49:31.783Z,2.30
2018-06-27T19:52:00.403Z,2.70
2018-06-27T19:54:28.835Z,2.37
2018-06-27T19:56:57.377Z,3.70
2018-06-27T19:59:25.742Z,2.67
2018-06-27T20:01:54.260Z,2.67
2018-06-27T20:04:22.827Z,2.60
2018-06-27T20:06:51.334Z,2.53
2018-06-27T20:09:19.661Z,2.70
2018-06-27T20:11:48.055Z,3.07
2018-06-27T20:14:16.555Z,2.33
2018-06-27T20:16:44.891Z,2.50
2018-06-27T20:19:13.332Z,2.87
2018-06-27T20:21:41.675Z,2.63
2018-06-27T20:24:10.052Z,2.70
2018-06-27T20:26:38.470Z,3.03
2018-06-27T20:29:07.085Z,3.37
2018-06-27T20:31:35.483Z,2.90
2018-06-27T20:34:04.004Z,3.00
2018-06-27T20:36:32.402Z,2.70
2018-06-27T20:39:00.775Z,2.63
2018-06-27T20:41:29.162Z,2.77
2018-06-27T20:43:57.529Z,3.30
2018-06-27T20:46:25.921Z,3.07
2018-06-27T20:48:54.289Z,3.37
2018-06-27T20:51:22.682Z,2.70
2018-06-27T20:53:51.051Z,3.10
2018-06-27T20:56:19.410Z,3.20
2018-06-27T20:58:47.814Z,2.57
2018-06-27T21:01:16.280Z,3.20
2018-06-27T21:03:44.655Z,3.23
2018-06-27T21:06:13.031Z,3.50
2018-06-27T21:08:41.418Z,3.87
2018-06-27T21:11:10.035Z,3.60
2018-06-27T21:13:38.442Z,3.17
2018-06-27T21:16:06.810Z,3.17
2018-06-27T21:18:35.499Z,3.60
2018-06-27T21:21:03.866Z,3.80
2018-06-27T21:23:32.271Z,3.40
2018-06-27T21:26:00.695Z,3.77
2018-06-27T21:28:29.262Z,3.80
2018-06-27T21:30:57.639Z,3.60
2018-06-27T21:33:26.027Z,3.70
2018-06-27T21:35:54.406Z,4.17
2018-06-27T21:38:22.853Z,3.90
2018-06-27T21:40:51.203Z,4.53
2018-06-27T21:43:19.598Z,4.43
2018-06-27T21:45:47.962Z,4.33
2018-06-27T21:48:16.354Z,4.40
2018-06-27T21:50:44.953Z,3.90
2018-06-27T21:53:13.326Z,4.57
2018-06-27T21:55:41.698Z,4.23
2018-06-27T21:58:10.141Z,4.10
2018-06-27T22:00:38.516Z,3.40
2018-06-27T22:03:07.846Z,4.47
2018-06-27T22:05:36.210Z,4.20
2018-06-27T22:08:04.606Z,4.53
2018-06-27T22:10:32.979Z,5.20
2018-06-27T22:13:01.442Z,4.70
2018-06-27T22:15:29.806Z,3.87
2018-06-27T22:17:59.770Z,4.60
2018-06-27T22:20:28.158Z,4.80
2018-06-27T22:22:56.554Z,5.00
2018-06-27T22:25:25.014Z,5.37
2018-06-27T22:27:53.382Z,5.40
2018-06-27T22:30:21.779Z,5.07
2018-06-27T22:32:50.231Z,5.77
2018-06-27T22:35:18.636Z,6.00
2018-06-27T22:37:47.023Z,5.00
2018-06-27T22:40:15.445Z,5.53
2018-06-27T22:42:44.811Z,6.00
2018-06-27T22:45:13.209Z,7.37
2018-06-27T22:47:41.603Z,5.60
2018-06-27T22:50:09.999Z,6.47
2018-06-27T22:52:38.371Z,7.00
2018-06-27T22:55:06.761Z,6.07
2018-06-27T22:57:35.245Z,7.50
2018-06-27T23:00:03.807Z,7.30
2018-06-27T23:02:32.182Z,6.20
2018-06-27T23:05:00.566Z,8.73
2018-06-27T23:07:28.941Z,7.10
2018-06-27T23:09:57.485Z,6.93
2018-06-27T23:12:25.938Z,7.30
2018-06-27T23:14:54.332Z,7.20
2018-06-27T23:17:22.697Z,7.53
2018-06-27T23:19:51.095Z,6.93
2018-06-27T23:22:30.921Z,7.50
2018-06-27T23:24:59.315Z,8.23
2018-06-27T23:27:27.683Z,7.27
2018-06-27T23:29:56.080Z,7.37
2018-06-27T23:32:24.446Z,7.83
2018-06-27T23:34:52.827Z,7.33
2018-06-27T23:37:20.245Z,7.20
2018-06-27T23:39:48.630Z,6.73
2018-06-27T23:42:17.021Z,5.83
2018-06-27T23:44:45.441Z,6.70
2018-06-27T23:47:13.806Z,6.20
2018-06-27T23:49:42.260Z,7.33
2018-06-27T23:52:10.683Z,7.80
2018-06-27T23:54:39.055Z,7.10
2018-06-27T23:57:07.467Z,6.90
2018-06-27T23:59:35.838Z,6.20
